sensor_id;sensor_type;location;lat;lon;timestamp;pressure;altitude;pressure_sealevel;temperature;humidity
64827;BME280;51265;53.972;12.286;2023-11-22T00:00:11;101991.03;;;0.97;100.00
64827;BME280;51265;53.972;12.286;2023-11-22T00:02:38;101995.59;;;0.96;100.00
64827;BME280;51265;53.972;12.286;2023-11-22T00:05:05;102000.78;;;0.91;100.00
64827;BME280;51265;53.972;12.286;2023-11-22T00:07:34;101998.06;;;0.85;100.00
64827;BME280;51265;53.972;12.286;2023-11-22T00:10:00;102005.91;;;0.73;100.00
64827;BME280;51265;53.972;12.286;2023-11-22T00:12:30;102000.41;;;0.60;100.00
64827;BME280;51265;53.972;12.286;2023-11-22T00:15:03;102010.38;;;0.53;100.00
64827;BME280;51265;53.972;12.286;2023-11-22T00:17:32;102017.88;;;0.51;100.00
64827;BME280;51265;53.972;12.286;2023-11-22T00:19:59;102039.16;;;0.54;100.00
64827;BME280;51265;53.972;12.286;2023-11-22T00:22:28;102037.97;;;0.63;100.00
64827;BME280;51265;53.972;12.286;2023-11-22T00:24:54;102036.38;;;0.75;100.00
64827;BME280;51265;53.972;12.286;2023-11-22T00:27:20;102043.56;;;0.89;100.00
64827;BME280;51265;53.972;12.286;2023-11-22T00:29:46;102055.13;;;1.05;100.00
64827;BME280;51265;53.972;12.286;2023-11-22T00:32:12;102064.16;;;1.18;100.00
64827;BME280;51265;53.972;12.286;2023-11-22T00:34:38;102063.78;;;1.21;100.00
64827;BME280;51265;53.972;12.286;2023-11-22T00:37:05;102053.75;;;1.22;100.00
64827;BME280;51265;53.972;12.286;2023-11-22T00:39:31;102062.72;;;1.22;100.00
64827;BME280;51265;53.972;12.286;2023-11-22T00:41:57;102055.03;;;1.26;100.00
64827;BME280;51265;53.972;12.286;2023-11-22T00:44:23;102051.72;;;1.37;100.00
64827;BME280;51265;53.972;12.286;2023-11-22T00:46:50;102053.38;;;1.32;100.00
64827;BME280;51265;53.972;12.286;2023-11-22T00:49:16;102052.53;;;1.31;100.00
64827;BME280;51265;53.972;12.286;2023-11-22T00:51:42;102062.13;;;1.27;100.00
64827;BME280;51265;53.972;12.286;2023-11-22T00:54:08;102064.59;;;1.22;100.00
64827;BME280;51265;53.972;12.286;2023-11-22T00:56:35;102061.63;;;1.17;100.00
64827;BME280;51265;53.972;12.286;2023-11-22T00:59:01;102062.84;;;1.08;100.00
64827;BME280;51265;53.972;12.286;2023-11-22T01:01:30;102064.06;;;0.98;100.00
64827;BME280;51265;53.972;12.286;2023-11-22T01:03:58;102059.19;;;0.87;100.00
64827;BME280;51265;53.972;12.286;2023-11-22T01:06:24;102068.13;;;0.81;100.00
64827;BME280;51265;53.972;12.286;2023-11-22T01:08:50;102050.00;;;0.54;100.00
64827;BME280;51265;53.972;12.286;2023-11-22T01:11:17;102055.38;;;0.47;100.00
64827;BME280;51265;53.972;12.286;2023-11-22T01:13:43;102051.53;;;0.35;100.00
64827;BME280;51265;53.972;12.286;2023-11-22T01:16:10;102049.00;;;0.33;100.00
64827;BME280;51265;53.972;12.286;2023-11-22T01:18:36;102062.16;;;0.36;100.00
64827;BME280;51265;53.972;12.286;2023-11-22T01:21:03;102059.41;;;0.30;100.00
64827;BME280;51265;53.972;12.286;2023-11-22T01:23:32;102066.06;;;0.27;100.00
64827;BME280;51265;53.972;12.286;2023-11-22T01:25:59;102059.00;;;0.05;100.00
64827;BME280;51265;53.972;12.286;2023-11-22T01:28:28;102066.59;;;-0.06;100.00
64827;BME280;51265;53.972;12.286;2023-11-22T01:30:55;102069.53;;;-0.01;100.00
64827;BME280;51265;53.972;12.286;2023-11-22T01:33:22;102075.03;;;0.06;100.00
64827;BME280;51265;53.972;12.286;2023-11-22T01:35:48;102085.53;;;0.16;100.00
64827;BME280;51265;53.972;12.286;2023-11-22T01:38:17;102079.38;;;0.01;100.00
64827;BME280;51265;53.972;12.286;2023-11-22T01:40:47;102080.25;;;-0.14;100.00
64827;BME280;51265;53.972;12.286;2023-11-22T01:43:14;102076.00;;;-0.23;100.00
64827;BME280;51265;53.972;12.286;2023-11-22T01:45:41;102078.94;;;-0.39;100.00
64827;BME280;51265;53.972;12.286;2023-11-22T01:48:10;102082.13;;;-0.51;100.00
64827;BME280;51265;53.972;12.286;2023-11-22T01:50:37;102085.97;;;-0.60;100.00
64827;BME280;51265;53.972;12.286;2023-11-22T01:53:07;102084.59;;;-0.70;100.00
64827;BME280;51265;53.972;12.286;2023-11-22T01:55:35;102085.22;;;-0.54;100.00
64827;BME280;51265;53.972;12.286;2023-11-22T01:58:01;102084.09;;;-0.44;100.00
64827;BME280;51265;53.972;12.286;2023-11-22T02:00:32;102081.63;;;-0.39;100.00
64827;BME280;51265;53.972;12.286;2023-11-22T02:03:02;102073.47;;;-0.46;100.00
64827;BME280;51265;53.972;12.286;2023-11-22T02:05:28;102079.41;;;-0.51;100.00
64827;BME280;51265;53.972;12.286;2023-11-22T02:07:54;102077.75;;;-0.52;100.00
64827;BME280;51265;53.972;12.286;2023-11-22T02:10:21;102072.16;;;-0.50;100.00
64827;BME280;51265;53.972;12.286;2023-11-22T02:12:47;102065.25;;;-0.53;100.00
64827;BME280;51265;53.972;12.286;2023-11-22T02:15:14;102066.53;;;-0.48;100.00
64827;BME280;51265;53.972;12.286;2023-11-22T02:17:40;102073.50;;;-0.39;100.00
64827;BME280;51265;53.972;12.286;2023-11-22T02:20:06;102085.91;;;-0.30;100.00
64827;BME280;51265;53.972;12.286;2023-11-22T02:22:45;102085.16;;;-0.24;100.00
64827;BME280;51265;53.972;12.286;2023-11-22T02:25:13;102084.38;;;-0.18;100.00
64827;BME280;51265;53.972;12.286;2023-11-22T02:27:39;102074.31;;;-0.24;100.00
64827;BME280;51265;53.972;12.286;2023-11-22T02:30:06;102075.84;;;-0.36;100.00
64827;BME280;51265;53.972;12.286;2023-11-22T02:36:39;102082.22;;;-0.59;100.00
64827;BME280;51265;53.972;12.286;2023-11-22T02:39:05;102085.06;;;-0.67;100.00
64827;BME280;51265;53.972;12.286;2023-11-22T02:41:32;102078.72;;;-0.74;100.00
64827;BME280;51265;53.972;12.286;2023-11-22T02:43:59;102083.47;;;-0.76;100.00
64827;BME280;51265;53.972;12.286;2023-11-22T02:46:27;102092.34;;;-0.82;100.00
64827;BME280;51265;53.972;12.286;2023-11-22T02:48:53;102092.34;;;-0.82;100.00
64827;BME280;51265;53.972;12.286;2023-11-22T02:51:22;102090.69;;;-0.83;100.00
64827;BME280;51265;53.972;12.286;2023-11-22T02:53:48;102090.69;;;-0.83;100.00
64827;BME280;51265;53.972;12.286;2023-11-22T02:56:15;102107.09;;;-0.85;100.00
64827;BME280;51265;53.972;12.286;2023-11-22T02:58:42;102099.53;;;-1.04;100.00
64827;BME280;51265;53.972;12.286;2023-11-22T03:01:08;102097.09;;;-1.29;100.00
64827;BME280;51265;53.972;12.286;2023-11-22T03:03:34;102097.53;;;-1.40;100.00
64827;BME280;51265;53.972;12.286;2023-11-22T03:06:01;102106.00;;;-1.43;100.00
64827;BME280;51265;53.972;12.286;2023-11-22T03:08:27;102111.31;;;-1.49;100.00
64827;BME280;51265;53.972;12.286;2023-11-22T03:11:12;102102.53;;;-1.52;100.00
64827;BME280;51265;53.972;12.286;2023-11-22T03:13:39;102117.19;;;-1.46;100.00
64827;BME280;51265;53.972;12.286;2023-11-22T03:16:05;102122.06;;;-1.41;100.00
64827;BME280;51265;53.972;12.286;2023-11-22T03:18:31;102122.84;;;-1.56;100.00
64827;BME280;51265;53.972;12.286;2023-11-22T03:20:57;102128.63;;;-1.59;100.00
64827;BME280;51265;53.972;12.286;2023-11-22T03:23:23;102142.78;;;-1.57;100.00
64827;BME280;51265;53.972;12.286;2023-11-22T03:25:49;102136.63;;;-1.51;100.00
64827;BME280;51265;53.972;12.286;2023-11-22T03:28:15;102130.72;;;-1.46;100.00
64827;BME280;51265;53.972;12.286;2023-11-22T03:30:41;102134.34;;;-1.39;100.00
64827;BME280;51265;53.972;12.286;2023-11-22T03:33:08;102129.16;;;-1.26;100.00
64827;BME280;51265;53.972;12.286;2023-11-22T03:35:35;102132.16;;;-1.20;100.00
64827;BME280;51265;53.972;12.286;2023-11-22T03:38:03;102128.63;;;-1.21;100.00
64827;BME280;51265;53.972;12.286;2023-11-22T03:40:29;102132.88;;;-1.27;100.00
64827;BME280;51265;53.972;12.286;2023-11-22T03:42:55;102149.09;;;-1.27;100.00
64827;BME280;51265;53.972;12.286;2023-11-22T03:45:21;102155.25;;;-1.33;100.00
64827;BME280;51265;53.972;12.286;2023-11-22T03:47:47;102178.56;;;-1.32;100.00
64827;BME280;51265;53.972;12.286;2023-11-22T03:50:13;102186.94;;;-1.27;100.00
64827;BME280;51265;53.972;12.286;2023-11-22T03:52:40;102195.25;;;-1.28;100.00
64827;BME280;51265;53.972;12.286;2023-11-22T03:55:06;102196.44;;;-1.31;100.00
64827;BME280;51265;53.972;12.286;2023-11-22T03:57:33;102193.94;;;-1.32;100.00
64827;BME280;51265;53.972;12.286;2023-11-22T03:59:59;102188.88;;;-1.35;100.00
64827;BME280;51265;53.972;12.286;2023-11-22T04:02:25;102187.28;;;-1.44;100.00
64827;BME280;51265;53.972;12.286;2023-11-22T04:04:53;102184.00;;;-1.55;100.00
64827;BME280;51265;53.972;12.286;2023-11-22T04:07:19;102197.19;;;-1.60;100.00
64827;BME280;51265;53.972;12.286;2023-11-22T04:09:45;102203.31;;;-1.66;100.00
64827;BME280;51265;53.972;12.286;2023-11-22T04:12:11;102195.16;;;-1.58;100.00
64827;BME280;51265;53.972;12.286;2023-11-22T04:14:38;102194.78;;;-1.55;100.00
64827;BME280;51265;53.972;12.286;2023-11-22T04:17:04;102194.13;;;-1.57;100.00
64827;BME280;51265;53.972;12.286;2023-11-22T04:19:30;102191.06;;;-1.54;100.00
64827;BME280;51265;53.972;12.286;2023-11-22T04:21:56;102189.41;;;-1.55;100.00
64827;BME280;51265;53.972;12.286;2023-11-22T04:24:22;102208.13;;;-1.53;100.00
64827;BME280;51265;53.972;12.286;2023-11-22T04:26:48;102198.50;;;-1.56;100.00
64827;BME280;51265;53.972;12.286;2023-11-22T04:29:15;102204.72;;;-1.55;100.00
64827;BME280;51265;53.972;12.286;2023-11-22T04:31:42;102206.66;;;-1.64;100.00
64827;BME280;51265;53.972;12.286;2023-11-22T04:34:08;102209.94;;;-1.77;100.00
64827;BME280;51265;53.972;12.286;2023-11-22T04:36:34;102205.44;;;-1.84;100.00
64827;BME280;51265;53.972;12.286;2023-11-22T04:39:00;102199.44;;;-1.94;100.00
64827;BME280;51265;53.972;12.286;2023-11-22T04:41:26;102210.09;;;-2.01;100.00
64827;BME280;51265;53.972;12.286;2023-11-22T04:43:53;102216.03;;;-2.06;100.00
64827;BME280;51265;53.972;12.286;2023-11-22T04:46:19;102217.41;;;-2.10;100.00
64827;BME280;51265;53.972;12.286;2023-11-22T04:48:45;102207.31;;;-2.16;100.00
64827;BME280;51265;53.972;12.286;2023-11-22T04:51:14;102207.81;;;-2.12;100.00
64827;BME280;51265;53.972;12.286;2023-11-22T04:53:42;102212.50;;;-2.06;100.00
64827;BME280;51265;53.972;12.286;2023-11-22T04:56:10;102206.88;;;-1.96;100.00
64827;BME280;51265;53.972;12.286;2023-11-22T04:58:36;102197.59;;;-2.25;100.00
64827;BME280;51265;53.972;12.286;2023-11-22T05:01:02;102189.88;;;-2.36;100.00
64827;BME280;51265;53.972;12.286;2023-11-22T05:03:28;102184.66;;;-2.38;100.00
64827;BME280;51265;53.972;12.286;2023-11-22T05:05:54;102193.84;;;-2.24;100.00
64827;BME280;51265;53.972;12.286;2023-11-22T05:08:20;102190.09;;;-2.15;100.00
64827;BME280;51265;53.972;12.286;2023-11-22T05:10:46;102190.44;;;-2.18;100.00
64827;BME280;51265;53.972;12.286;2023-11-22T05:13:12;102190.63;;;-2.19;100.00
64827;BME280;51265;53.972;12.286;2023-11-22T05:15:39;102196.25;;;-2.29;100.00
64827;BME280;51265;53.972;12.286;2023-11-22T05:18:05;102187.13;;;-2.28;100.00
64827;BME280;51265;53.972;12.286;2023-11-22T05:20:32;102190.50;;;-2.34;100.00
64827;BME280;51265;53.972;12.286;2023-11-22T05:22:58;102192.91;;;-2.39;100.00
64827;BME280;51265;53.972;12.286;2023-11-22T05:25:25;102195.91;;;-2.34;100.00
64827;BME280;51265;53.972;12.286;2023-11-22T05:27:51;102210.88;;;-2.23;100.00
64827;BME280;51265;53.972;12.286;2023-11-22T05:30:17;102221.66;;;-2.15;100.00
64827;BME280;51265;53.972;12.286;2023-11-22T05:32:43;102233.03;;;-1.97;100.00
64827;BME280;51265;53.972;12.286;2023-11-22T05:35:09;102228.50;;;-1.96;100.00
64827;BME280;51265;53.972;12.286;2023-11-22T05:37:36;102221.63;;;-2.07;100.00
64827;BME280;51265;53.972;12.286;2023-11-22T05:40:04;102218.75;;;-2.14;100.00
64827;BME280;51265;53.972;12.286;2023-11-22T05:42:31;102225.69;;;-2.11;100.00
64827;BME280;51265;53.972;12.286;2023-11-22T05:44:57;102233.25;;;-2.07;100.00
64827;BME280;51265;53.972;12.286;2023-11-22T05:47:23;102239.34;;;-2.05;100.00
64827;BME280;51265;53.972;12.286;2023-11-22T05:49:49;102238.00;;;-2.09;100.00
64827;BME280;51265;53.972;12.286;2023-11-22T05:52:16;102239.72;;;-2.16;100.00
64827;BME280;51265;53.972;12.286;2023-11-22T05:54:42;102241.09;;;-2.28;100.00
64827;BME280;51265;53.972;12.286;2023-11-22T05:57:08;102242.00;;;-2.44;100.00
64827;BME280;51265;53.972;12.286;2023-11-22T05:59:36;102241.88;;;-2.51;100.00
64827;BME280;51265;53.972;12.286;2023-11-22T06:02:02;102248.44;;;-2.53;100.00
64827;BME280;51265;53.972;12.286;2023-11-22T06:04:28;102262.13;;;-2.55;100.00
64827;BME280;51265;53.972;12.286;2023-11-22T06:06:57;102272.91;;;-2.63;100.00
64827;BME280;51265;53.972;12.286;2023-11-22T06:09:23;102271.91;;;-2.70;100.00
64827;BME280;51265;53.972;12.286;2023-11-22T06:11:49;102273.91;;;-2.72;100.00
64827;BME280;51265;53.972;12.286;2023-11-22T06:14:15;102283.34;;;-2.68;100.00
64827;BME280;51265;53.972;12.286;2023-11-22T06:16:41;102281.31;;;-2.58;100.00
64827;BME280;51265;53.972;12.286;2023-11-22T06:19:07;102285.88;;;-2.50;100.00
64827;BME280;51265;53.972;12.286;2023-11-22T06:21:34;102283.81;;;-2.48;100.00
64827;BME280;51265;53.972;12.286;2023-11-22T06:24:01;102272.91;;;-2.55;100.00
64827;BME280;51265;53.972;12.286;2023-11-22T06:26:29;102270.53;;;-2.49;100.00
64827;BME280;51265;53.972;12.286;2023-11-22T06:28:55;102268.84;;;-2.51;100.00
64827;BME280;51265;53.972;12.286;2023-11-22T06:31:22;102261.59;;;-2.58;100.00
64827;BME280;51265;53.972;12.286;2023-11-22T06:33:48;102263.78;;;-2.45;100.00
64827;BME280;51265;53.972;12.286;2023-11-22T06:36:15;102262.44;;;-2.49;100.00
64827;BME280;51265;53.972;12.286;2023-11-22T06:38:41;102261.56;;;-2.42;100.00
64827;BME280;51265;53.972;12.286;2023-11-22T06:41:08;102245.19;;;-2.40;100.00
64827;BME280;51265;53.972;12.286;2023-11-22T06:43:34;102231.97;;;-2.27;100.00
64827;BME280;51265;53.972;12.286;2023-11-22T06:46:00;102236.69;;;-2.21;100.00
64827;BME280;51265;53.972;12.286;2023-11-22T06:48:27;102244.72;;;-2.05;100.00
64827;BME280;51265;53.972;12.286;2023-11-22T06:50:53;102246.56;;;-2.05;100.00
64827;BME280;51265;53.972;12.286;2023-11-22T06:53:19;102237.66;;;-2.14;100.00
64827;BME280;51265;53.972;12.286;2023-11-22T06:55:46;102231.75;;;-2.17;100.00
64827;BME280;51265;53.972;12.286;2023-11-22T06:58:12;102224.84;;;-2.12;100.00
64827;BME280;51265;53.972;12.286;2023-11-22T07:00:39;102222.59;;;-2.00;100.00
64827;BME280;51265;53.972;12.286;2023-11-22T07:03:06;102228.94;;;-1.93;100.00
64827;BME280;51265;53.972;12.286;2023-11-22T07:05:32;102225.94;;;-1.98;100.00
64827;BME280;51265;53.972;12.286;2023-11-22T07:07:58;102225.47;;;-2.02;100.00
64827;BME280;51265;53.972;12.286;2023-11-22T07:10:25;102225.47;;;-2.02;100.00
64827;BME280;51265;53.972;12.286;2023-11-22T07:12:53;102235.16;;;-1.84;100.00
64827;BME280;51265;53.972;12.286;2023-11-22T07:15:19;102219.28;;;-1.79;100.00
64827;BME280;51265;53.972;12.286;2023-11-22T07:17:45;102220.59;;;-1.75;100.00
64827;BME280;51265;53.972;12.286;2023-11-22T07:20:11;102217.72;;;-1.73;100.00
64827;BME280;51265;53.972;12.286;2023-11-22T07:22:42;102211.47;;;-1.74;100.00
64827;BME280;51265;53.972;12.286;2023-11-22T07:25:09;102211.28;;;-1.72;100.00
64827;BME280;51265;53.972;12.286;2023-11-22T07:27:45;102229.84;;;-1.69;100.00
64827;BME280;51265;53.972;12.286;2023-11-22T07:30:15;102232.00;;;-1.65;100.00
64827;BME280;51265;53.972;12.286;2023-11-22T07:32:42;102242.94;;;-1.58;100.00
64827;BME280;51265;53.972;12.286;2023-11-22T07:35:08;102256.03;;;-1.47;100.00
64827;BME280;51265;53.972;12.286;2023-11-22T07:37:35;102261.22;;;-1.37;100.00
64827;BME280;51265;53.972;12.286;2023-11-22T07:40:11;102262.34;;;-1.32;100.00
64827;BME280;51265;53.972;12.286;2023-11-22T07:42:40;102255.06;;;-1.31;100.00
64827;BME280;51265;53.972;12.286;2023-11-22T07:45:06;102276.63;;;-1.23;100.00
64827;BME280;51265;53.972;12.286;2023-11-22T07:47:33;102278.44;;;-1.15;100.00
64827;BME280;51265;53.972;12.286;2023-11-22T07:49:59;102287.88;;;-1.11;100.00
64827;BME280;51265;53.972;12.286;2023-11-22T07:52:27;102292.06;;;-1.09;100.00
64827;BME280;51265;53.972;12.286;2023-11-22T07:54:56;102307.84;;;-1.12;100.00
64827;BME280;51265;53.972;12.286;2023-11-22T07:57:22;102301.94;;;-1.16;100.00
64827;BME280;51265;53.972;12.286;2023-11-22T07:59:49;102312.63;;;-1.22;100.00
64827;BME280;51265;53.972;12.286;2023-11-22T08:02:15;102321.28;;;-1.27;100.00
64827;BME280;51265;53.972;12.286;2023-11-22T08:04:44;102321.28;;;-1.27;100.00
64827;BME280;51265;53.972;12.286;2023-11-22T08:07:11;102307.69;;;-1.19;100.00
64827;BME280;51265;53.972;12.286;2023-11-22T08:09:41;102320.28;;;-1.03;100.00
64827;BME280;51265;53.972;12.286;2023-11-22T08:12:07;102300.94;;;-0.77;100.00
64827;BME280;51265;53.972;12.286;2023-11-22T08:14:33;102304.53;;;-0.62;100.00
64827;BME280;51265;53.972;12.286;2023-11-22T08:17:00;102297.84;;;-0.21;100.00
64827;BME280;51265;53.972;12.286;2023-11-22T08:19:26;102285.50;;;-0.09;100.00
64827;BME280;51265;53.972;12.286;2023-11-22T08:21:53;102286.25;;;-0.01;100.00
64827;BME280;51265;53.972;12.286;2023-11-22T08:24:21;102278.94;;;0.15;100.00
64827;BME280;51265;53.972;12.286;2023-11-22T08:26:47;102266.06;;;0.17;100.00
64827;BME280;51265;53.972;12.286;2023-11-22T08:29:13;102272.78;;;0.21;100.00
64827;BME280;51265;53.972;12.286;2023-11-22T08:31:40;102275.00;;;0.32;100.00
64827;BME280;51265;53.972;12.286;2023-11-22T08:34:06;102267.28;;;0.51;100.00
64827;BME280;51265;53.972;12.286;2023-11-22T08:36:33;102276.59;;;0.63;100.00
64827;BME280;51265;53.972;12.286;2023-11-22T08:39:00;102273.72;;;0.71;100.00
64827;BME280;51265;53.972;12.286;2023-11-22T08:41:27;102265.47;;;0.79;100.00
64827;BME280;51265;53.972;12.286;2023-11-22T08:43:56;102283.75;;;0.70;100.00
64827;BME280;51265;53.972;12.286;2023-11-22T08:46:22;102273.72;;;0.71;100.00
64827;BME280;51265;53.972;12.286;2023-11-22T08:48:49;102281.31;;;0.76;100.00
64827;BME280;51265;53.972;12.286;2023-11-22T08:51:17;102284.75;;;0.84;100.00
64827;BME280;51265;53.972;12.286;2023-11-22T08:53:44;102267.47;;;0.92;100.00
64827;BME280;51265;53.972;12.286;2023-11-22T08:56:10;102272.13;;;0.98;100.00
64827;BME280;51265;53.972;12.286;2023-11-22T08:58:38;102266.91;;;0.96;100.00
64827;BME280;51265;53.972;12.286;2023-11-22T09:01:05;102276.47;;;0.92;100.00
64827;BME280;51265;53.972;12.286;2023-11-22T09:03:33;102272.19;;;1.05;100.00
64827;BME280;51265;53.972;12.286;2023-11-22T09:06:00;102276.94;;;1.24;100.00
64827;BME280;51265;53.972;12.286;2023-11-22T09:08:26;102278.88;;;1.30;100.00
64827;BME280;51265;53.972;12.286;2023-11-22T09:10:52;102282.91;;;1.41;100.00
64827;BME280;51265;53.972;12.286;2023-11-22T09:13:19;102278.97;;;1.43;100.00
64827;BME280;51265;53.972;12.286;2023-11-22T09:15:47;102283.22;;;1.53;100.00
64827;BME280;51265;53.972;12.286;2023-11-22T09:18:13;102279.28;;;1.62;100.00
64827;BME280;51265;53.972;12.286;2023-11-22T09:20:39;102276.63;;;1.68;100.00
64827;BME280;51265;53.972;12.286;2023-11-22T09:23:10;102290.44;;;1.73;100.00
64827;BME280;51265;53.972;12.286;2023-11-22T09:25:36;102290.75;;;1.85;100.00
64827;BME280;51265;53.972;12.286;2023-11-22T09:28:02;102292.63;;;1.91;100.00
64827;BME280;51265;53.972;12.286;2023-11-22T09:30:31;102298.56;;;2.02;100.00
64827;BME280;51265;53.972;12.286;2023-11-22T09:35:33;102315.72;;;2.09;100.00
64827;BME280;51265;53.972;12.286;2023-11-22T09:38:00;102299.84;;;2.06;100.00
64827;BME280;51265;53.972;12.286;2023-11-22T09:40:28;102292.75;;;2.11;100.00
64827;BME280;51265;53.972;12.286;2023-11-22T09:42:55;102295.25;;;2.13;100.00
64827;BME280;51265;53.972;12.286;2023-11-22T09:45:21;102302.41;;;2.14;100.00
64827;BME280;51265;53.972;12.286;2023-11-22T09:47:48;102291.97;;;2.24;100.00
64827;BME280;51265;53.972;12.286;2023-11-22T09:50:19;102296.53;;;2.17;100.00
64827;BME280;51265;53.972;12.286;2023-11-22T09:52:50;102295.31;;;2.19;100.00
64827;BME280;51265;53.972;12.286;2023-11-22T09:55:18;102303.22;;;2.14;100.00
64827;BME280;51265;53.972;12.286;2023-11-22T09:57:45;102301.13;;;2.10;100.00
64827;BME280;51265;53.972;12.286;2023-11-22T10:00:11;102294.41;;;2.12;100.00
64827;BME280;51265;53.972;12.286;2023-11-22T10:02:42;102292.13;;;2.16;100.00
64827;BME280;51265;53.972;12.286;2023-11-22T10:05:09;102279.03;;;2.26;100.00
64827;BME280;51265;53.972;12.286;2023-11-22T10:07:35;102290.13;;;2.31;100.00
64827;BME280;51265;53.972;12.286;2023-11-22T10:10:02;102280.28;;;2.30;100.00
64827;BME280;51265;53.972;12.286;2023-11-22T10:12:32;102275.47;;;2.32;100.00
64827;BME280;51265;53.972;12.286;2023-11-22T10:15:16;102269.28;;;2.52;100.00
64827;BME280;51265;53.972;12.286;2023-11-22T10:17:54;102246.69;;;2.58;100.00
64827;BME280;51265;53.972;12.286;2023-11-22T10:20:25;102239.41;;;2.78;100.00
64827;BME280;51265;53.972;12.286;2023-11-22T10:22:54;102227.66;;;2.84;100.00
64827;BME280;51265;53.972;12.286;2023-11-22T10:25:21;102239.00;;;2.94;100.00
64827;BME280;51265;53.972;12.286;2023-11-22T10:27:48;102236.28;;;3.01;100.00
64827;BME280;51265;53.972;12.286;2023-11-22T10:30:17;102225.56;;;3.13;100.00
64827;BME280;51265;53.972;12.286;2023-11-22T10:32:45;102217.00;;;3.16;100.00
64827;BME280;51265;53.972;12.286;2023-11-22T10:35:12;102213.03;;;3.12;100.00
64827;BME280;51265;53.972;12.286;2023-11-22T10:37:42;102201.91;;;3.20;100.00
64827;BME280;51265;53.972;12.286;2023-11-22T10:40:12;102212.59;;;3.08;100.00
64827;BME280;51265;53.972;12.286;2023-11-22T10:42:40;102196.69;;;3.05;100.00
64827;BME280;51265;53.972;12.286;2023-11-22T10:45:09;102185.41;;;3.02;100.00
64827;BME280;51265;53.972;12.286;2023-11-22T10:47:37;102177.44;;;2.93;100.00
64827;BME280;51265;53.972;12.286;2023-11-22T10:50:09;102157.75;;;3.11;100.00
64827;BME280;51265;53.972;12.286;2023-11-22T10:52:36;102152.50;;;3.23;100.00
64827;BME280;51265;53.972;12.286;2023-11-22T10:55:03;102143.03;;;3.25;100.00
64827;BME280;51265;53.972;12.286;2023-11-22T10:57:32;102106.00;;;3.11;100.00
64827;BME280;51265;53.972;12.286;2023-11-22T11:00:03;102091.56;;;3.11;100.00
64827;BME280;51265;53.972;12.286;2023-11-22T11:02:40;102070.22;;;3.08;100.00
64827;BME280;51265;53.972;12.286;2023-11-22T11:05:11;102044.69;;;3.02;100.00
64827;BME280;51265;53.972;12.286;2023-11-22T11:07:46;102024.56;;;3.10;100.00
64827;BME280;51265;53.972;12.286;2023-11-22T11:10:14;102016.66;;;3.02;100.00
64827;BME280;51265;53.972;12.286;2023-11-22T11:12:44;102001.06;;;3.22;100.00
64827;BME280;51265;53.972;12.286;2023-11-22T11:15:11;101980.88;;;3.36;100.00
64827;BME280;51265;53.972;12.286;2023-11-22T11:17:37;101977.38;;;3.61;100.00
64827;BME280;51265;53.972;12.286;2023-11-22T11:20:06;101947.91;;;3.76;99.08
64827;BME280;51265;53.972;12.286;2023-11-22T11:22:33;101938.75;;;3.95;97.03
64827;BME280;51265;53.972;12.286;2023-11-22T11:25:04;101890.75;;;3.94;94.81
64827;BME280;51265;53.972;12.286;2023-11-22T11:27:40;101857.38;;;4.17;92.58
64827;BME280;51265;53.972;12.286;2023-11-22T11:33:00;101779.00;;;3.94;86.90
64827;BME280;51265;53.972;12.286;2023-11-22T11:35:42;101774.13;;;3.96;86.43
64827;BME280;51265;53.972;12.286;2023-11-22T11:38:08;101783.69;;;4.06;86.49
64827;BME280;51265;53.972;12.286;2023-11-22T11:40:35;101793.75;;;4.05;86.33
64827;BME280;51265;53.972;12.286;2023-11-22T11:43:04;101781.94;;;3.93;86.66
64827;BME280;51265;53.972;12.286;2023-11-22T11:45:35;101765.81;;;3.91;86.25
64827;BME280;51265;53.972;12.286;2023-11-22T11:48:01;101770.38;;;3.97;86.66
64827;BME280;51265;53.972;12.286;2023-11-22T11:50:27;101770.97;;;3.99;85.66
64827;BME280;51265;53.972;12.286;2023-11-22T11:52:53;101768.25;;;3.99;85.44
64827;BME280;51265;53.972;12.286;2023-11-22T11:55:19;101771.34;;;4.03;84.35
64827;BME280;51265;53.972;12.286;2023-11-22T11:57:46;101759.47;;;3.97;83.75
64827;BME280;51265;53.972;12.286;2023-11-22T12:00:13;101757.97;;;4.02;82.78
64827;BME280;51265;53.972;12.286;2023-11-22T12:02:40;101741.72;;;3.88;81.64
64827;BME280;51265;53.972;12.286;2023-11-22T12:05:07;101749.00;;;3.94;81.62
64827;BME280;51265;53.972;12.286;2023-11-22T12:07:36;101752.84;;;4.05;81.18
64827;BME280;51265;53.972;12.286;2023-11-22T12:10:04;101726.88;;;3.84;80.02
64827;BME280;51265;53.972;12.286;2023-11-22T12:12:33;101712.34;;;3.72;79.83
64827;BME280;51265;53.972;12.286;2023-11-22T12:15:00;101723.25;;;3.72;80.06
64827;BME280;51265;53.972;12.286;2023-11-22T12:17:26;101725.38;;;3.70;79.82
64827;BME280;51265;53.972;12.286;2023-11-22T12:20:09;101753.84;;;3.74;79.80
64827;BME280;51265;53.972;12.286;2023-11-22T12:22:38;101735.38;;;3.76;79.89
64827;BME280;51265;53.972;12.286;2023-11-22T12:25:05;101745.72;;;3.67;81.01
64827;BME280;51265;53.972;12.286;2023-11-22T12:27:31;101726.75;;;3.61;80.68
64827;BME280;51265;53.972;12.286;2023-11-22T12:29:57;101712.88;;;3.62;80.45
64827;BME280;51265;53.972;12.286;2023-11-22T12:32:27;101698.44;;;3.62;80.37
64827;BME280;51265;53.972;12.286;2023-11-22T12:34:54;101675.66;;;3.56;80.57
64827;BME280;51265;53.972;12.286;2023-11-22T12:37:21;101658.50;;;3.56;80.48
64827;BME280;51265;53.972;12.286;2023-11-22T12:39:51;101656.34;;;3.58;80.26
64827;BME280;51265;53.972;12.286;2023-11-22T12:42:20;101644.88;;;3.56;79.88
64827;BME280;51265;53.972;12.286;2023-11-22T12:44:48;101639.19;;;3.57;79.62